sensor_id;sensor_type;location;lat;lon;timestamp;P1;durP1;ratioP1;P2;durP2;ratioP2
5491;SDS011;2768;53.540;10.224;2023-12-04T00:02:39;18.47;;;12.60;;
5491;SDS011;2768;53.540;10.224;2023-12-04T00:08:32;17.60;;;12.23;;
5491;SDS011;2768;53.540;10.224;2023-12-04T00:14:26;22.70;;;13.33;;
5491;SDS011;2768;53.540;10.224;2023-12-04T00:20:21;20.40;;;12.70;;
5491;SDS011;2768;53.540;10.224;2023-12-04T00:26:15;20.47;;;13.87;;
5491;SDS011;2768;53.540;10.224;2023-12-04T00:32:09;20.23;;;13.40;;
5491;SDS011;2768;53.540;10.224;2023-12-04T00:38:04;18.73;;;12.70;;
5491;SDS011;2768;53.540;10.224;2023-12-04T00:43:57;19.30;;;12.37;;
5491;SDS011;2768;53.540;10.224;2023-12-04T00:49:51;19.97;;;12.70;;
5491;SDS011;2768;53.540;10.224;2023-12-04T00:55:45;17.67;;;11.57;;
5491;SDS011;2768;53.540;10.224;2023-12-04T01:01:39;17.90;;;12.73;;
5491;SDS011;2768;53.540;10.224;2023-12-04T01:07:32;18.97;;;12.37;;
5491;SDS011;2768;53.540;10.224;2023-12-04T01:13:27;18.47;;;12.60;;
5491;SDS011;2768;53.540;10.224;2023-12-04T01:19:21;21.03;;;13.63;;
5491;SDS011;2768;53.540;10.224;2023-12-04T01:25:15;20.80;;;13.67;;
5491;SDS011;2768;53.540;10.224;2023-12-04T01:31:11;19.73;;;12.50;;
5491;SDS011;2768;53.540;10.224;2023-12-04T01:37:04;20.20;;;13.30;;
5491;SDS011;2768;53.540;10.224;2023-12-04T01:42:58;19.30;;;13.30;;
5491;SDS011;2768;53.540;10.224;2023-12-04T01:48:52;21.17;;;13.30;;
5491;SDS011;2768;53.540;10.224;2023-12-04T01:54:47;18.97;;;12.33;;
5491;SDS011;2768;53.540;10.224;2023-12-04T02:00:40;16.57;;;11.97;;
5491;SDS011;2768;53.540;10.224;2023-12-04T02:06:35;19.83;;;12.30;;
5491;SDS011;2768;53.540;10.224;2023-12-04T02:12:29;16.10;;;11.00;;
5491;SDS011;2768;53.540;10.224;2023-12-04T02:18:23;16.80;;;10.93;;
5491;SDS011;2768;53.540;10.224;2023-12-04T02:24:19;16.53;;;11.53;;
5491;SDS011;2768;53.540;10.224;2023-12-04T02:30:13;17.50;;;12.20;;
5491;SDS011;2768;53.540;10.224;2023-12-04T02:36:09;17.93;;;11.90;;
5491;SDS011;2768;53.540;10.224;2023-12-04T02:42:06;18.70;;;12.30;;
5491;SDS011;2768;53.540;10.224;2023-12-04T02:48:00;18.03;;;11.60;;
5491;SDS011;2768;53.540;10.224;2023-12-04T02:53:53;18.47;;;11.90;;
5491;SDS011;2768;53.540;10.224;2023-12-04T02:59:48;15.77;;;10.90;;
5491;SDS011;2768;53.540;10.224;2023-12-04T03:05:42;15.87;;;10.90;;
5491;SDS011;2768;53.540;10.224;2023-12-04T03:11:39;13.30;;;10.37;;
5491;SDS011;2768;53.540;10.224;2023-12-04T03:17:34;17.87;;;10.60;;
5491;SDS011;2768;53.540;10.224;2023-12-04T03:23:27;15.60;;;10.60;;
5491;SDS011;2768;53.540;10.224;2023-12-04T03:29:21;13.60;;;9.40;;
5491;SDS011;2768;53.540;10.224;2023-12-04T03:35:16;14.40;;;10.50;;
5491;SDS011;2768;53.540;10.224;2023-12-04T03:41:13;14.43;;;9.50;;
5491;SDS011;2768;53.540;10.224;2023-12-04T03:47:07;14.60;;;10.50;;
5491;SDS011;2768;53.540;10.224;2023-12-04T03:53:01;13.90;;;9.90;;
5491;SDS011;2768;53.540;10.224;2023-12-04T03:58:56;14.23;;;10.30;;
5491;SDS011;2768;53.540;10.224;2023-12-04T04:04:49;15.13;;;10.23;;
5491;SDS011;2768;53.540;10.224;2023-12-04T04:10:44;17.30;;;10.40;;
5491;SDS011;2768;53.540;10.224;2023-12-04T04:16:38;13.83;;;9.97;;
5491;SDS011;2768;53.540;10.224;2023-12-04T04:22:32;13.67;;;9.50;;
5491;SDS011;2768;53.540;10.224;2023-12-04T04:28:31;14.77;;;10.30;;
5491;SDS011;2768;53.540;10.224;2023-12-04T04:34:24;16.30;;;9.90;;
5491;SDS011;2768;53.540;10.224;2023-12-04T04:40:18;12.90;;;9.50;;
5491;SDS011;2768;53.540;10.224;2023-12-04T04:46:13;16.10;;;10.50;;
5491;SDS011;2768;53.540;10.224;2023-12-04T04:52:06;14.17;;;10.40;;
5491;SDS011;2768;53.540;10.224;2023-12-04T04:58:00;14.40;;;9.90;;
5491;SDS011;2768;53.540;10.224;2023-12-04T05:03:55;15.40;;;11.20;;
5491;SDS011;2768;53.540;10.224;2023-12-04T05:09:48;15.90;;;9.93;;
5491;SDS011;2768;53.540;10.224;2023-12-04T05:15:42;15.17;;;10.33;;
5491;SDS011;2768;53.540;10.224;2023-12-04T05:21:37;15.10;;;10.10;;
5491;SDS011;2768;53.540;10.224;2023-12-04T05:27:31;13.80;;;10.17;;
5491;SDS011;2768;53.540;10.224;2023-12-04T05:33:25;14.97;;;10.37;;
5491;SDS011;2768;53.540;10.224;2023-12-04T05:39:20;16.40;;;10.93;;
5491;SDS011;2768;53.540;10.224;2023-12-04T05:45:14;15.57;;;11.03;;
5491;SDS011;2768;53.540;10.224;2023-12-04T05:51:07;17.07;;;11.70;;
5491;SDS011;2768;53.540;10.224;2023-12-04T05:57:05;16.30;;;10.50;;
5491;SDS011;2768;53.540;10.224;2023-12-04T06:02:59;16.93;;;11.97;;
5491;SDS011;2768;53.540;10.224;2023-12-04T06:08:52;19.83;;;11.93;;
5491;SDS011;2768;53.540;10.224;2023-12-04T06:14:47;17.70;;;11.47;;
5491;SDS011;2768;53.540;10.224;2023-12-04T06:20:42;18.87;;;12.20;;
5491;SDS011;2768;53.540;10.224;2023-12-04T06:26:36;21.27;;;13.00;;
5491;SDS011;2768;53.540;10.224;2023-12-04T06:32:35;19.37;;;12.50;;
5491;SDS011;2768;53.540;10.224;2023-12-04T06:38:29;17.67;;;12.57;;
5491;SDS011;2768;53.540;10.224;2023-12-04T06:44:25;19.40;;;12.77;;
5491;SDS011;2768;53.540;10.224;2023-12-04T06:50:20;17.80;;;12.07;;
5491;SDS011;2768;53.540;10.224;2023-12-04T06:56:13;17.50;;;12.43;;
5491;SDS011;2768;53.540;10.224;2023-12-04T07:02:11;19.10;;;13.30;;
5491;SDS011;2768;53.540;10.224;2023-12-04T07:08:06;21.67;;;13.37;;
5491;SDS011;2768;53.540;10.224;2023-12-04T07:13:59;17.50;;;12.50;;
5491;SDS011;2768;53.540;10.224;2023-12-04T07:19:52;18.30;;;11.70;;
5491;SDS011;2768;53.540;10.224;2023-12-04T07:25:47;17.47;;;11.93;;
5491;SDS011;2768;53.540;10.224;2023-12-04T07:31:41;20.90;;;12.73;;
5491;SDS011;2768;53.540;10.224;2023-12-04T07:37:34;17.40;;;11.57;;
5491;SDS011;2768;53.540;10.224;2023-12-04T07:43:28;19.40;;;13.03;;
5491;SDS011;2768;53.540;10.224;2023-12-04T07:49:22;18.30;;;13.60;;
5491;SDS011;2768;53.540;10.224;2023-12-04T07:55:15;20.30;;;13.57;;
5491;SDS011;2768;53.540;10.224;2023-12-04T08:01:10;18.77;;;12.40;;
5491;SDS011;2768;53.540;10.224;2023-12-04T08:07:03;19.63;;;11.90;;
5491;SDS011;2768;53.540;10.224;2023-12-04T08:12:56;17.80;;;12.97;;
5491;SDS011;2768;53.540;10.224;2023-12-04T08:18:51;18.27;;;13.37;;
5491;SDS011;2768;53.540;10.224;2023-12-04T08:24:45;18.60;;;12.53;;
5491;SDS011;2768;53.540;10.224;2023-12-04T08:30:39;16.20;;;12.80;;
5491;SDS011;2768;53.540;10.224;2023-12-04T08:36:33;18.57;;;12.73;;
5491;SDS011;2768;53.540;10.224;2023-12-04T08:42:37;17.13;;;11.63;;
5491;SDS011;2768;53.540;10.224;2023-12-04T08:48:31;18.53;;;11.83;;
5491;SDS011;2768;53.540;10.224;2023-12-04T08:54:25;19.60;;;12.93;;
5491;SDS011;2768;53.540;10.224;2023-12-04T09:00:19;17.53;;;12.27;;
5491;SDS011;2768;53.540;10.224;2023-12-04T09:06:12;18.63;;;12.50;;
5491;SDS011;2768;53.540;10.224;2023-12-04T09:12:09;18.50;;;12.03;;
5491;SDS011;2768;53.540;10.224;2023-12-04T09:18:02;17.93;;;11.40;;
5491;SDS011;2768;53.540;10.224;2023-12-04T09:23:56;16.40;;;11.30;;
5491;SDS011;2768;53.540;10.224;2023-12-04T09:29:51;16.87;;;11.93;;
5491;SDS011;2768;53.540;10.224;2023-12-04T09:35:44;17.17;;;11.07;;
5491;SDS011;2768;53.540;10.224;2023-12-04T09:41:37;20.50;;;12.77;;
5491;SDS011;2768;53.540;10.224;2023-12-04T09:47:33;19.73;;;12.10;;
5491;SDS011;2768;53.540;10.224;2023-12-04T09:53:28;15.63;;;10.10;;
5491;SDS011;2768;53.540;10.224;2023-12-04T09:59:24;18.40;;;12.07;;
5491;SDS011;2768;53.540;10.224;2023-12-04T10:05:19;17.27;;;11.80;;
5491;SDS011;2768;53.540;10.224;2023-12-04T10:11:13;18.57;;;12.97;;
5491;SDS011;2768;53.540;10.224;2023-12-04T10:17:13;19.27;;;12.93;;
5491;SDS011;2768;53.540;10.224;2023-12-04T10:23:11;19.00;;;13.23;;
5491;SDS011;2768;53.540;10.224;2023-12-04T10:29:04;18.80;;;12.50;;
5491;SDS011;2768;53.540;10.224;2023-12-04T10:34:57;22.00;;;13.80;;
5491;SDS011;2768;53.540;10.224;2023-12-04T10:40:53;18.60;;;12.97;;
5491;SDS011;2768;53.540;10.224;2023-12-04T10:46:46;18.40;;;12.73;;
5491;SDS011;2768;53.540;10.224;2023-12-04T10:52:40;16.17;;;11.70;;
5491;SDS011;2768;53.540;10.224;2023-12-04T10:58:38;19.67;;;12.67;;
5491;SDS011;2768;53.540;10.224;2023-12-04T11:04:34;18.90;;;12.83;;
5491;SDS011;2768;53.540;10.224;2023-12-04T11:10:29;17.80;;;12.27;;
5491;SDS011;2768;53.540;10.224;2023-12-04T11:16:28;16.07;;;12.30;;
5491;SDS011;2768;53.540;10.224;2023-12-04T11:22:27;17.93;;;13.00;;
5491;SDS011;2768;53.540;10.224;2023-12-04T11:28:21;18.67;;;13.40;;
5491;SDS011;2768;53.540;10.224;2023-12-04T11:34:17;16.50;;;12.60;;
5491;SDS011;2768;53.540;10.224;2023-12-04T11:40:11;15.70;;;11.77;;
5491;SDS011;2768;53.540;10.224;2023-12-04T11:46:09;19.60;;;13.00;;
5491;SDS011;2768;53.540;10.224;2023-12-04T11:52:05;15.50;;;12.00;;
5491;SDS011;2768;53.540;10.224;2023-12-04T11:58:02;18.87;;;13.20;;
5491;SDS011;2768;53.540;10.224;2023-12-04T12:04:03;16.33;;;11.60;;
5491;SDS011;2768;53.540;10.224;2023-12-04T12:09:59;17.10;;;13.23;;
5491;SDS011;2768;53.540;10.224;2023-12-04T12:15:52;18.70;;;12.77;;
5491;SDS011;2768;53.540;10.224;2023-12-04T12:21:46;17.50;;;12.70;;
5491;SDS011;2768;53.540;10.224;2023-12-04T12:27:42;17.60;;;12.07;;
5491;SDS011;2768;53.540;10.224;2023-12-04T12:33:35;18.73;;;13.60;;
5491;SDS011;2768;53.540;10.224;2023-12-04T12:39:29;15.97;;;11.37;;
5491;SDS011;2768;53.540;10.224;2023-12-04T12:45:24;16.30;;;10.87;;
5491;SDS011;2768;53.540;10.224;2023-12-04T12:51:18;16.90;;;10.73;;
5491;SDS011;2768;53.540;10.224;2023-12-04T12:57:12;15.93;;;11.00;;
5491;SDS011;2768;53.540;10.224;2023-12-04T13:03:07;13.73;;;9.47;;
5491;SDS011;2768;53.540;10.224;2023-12-04T13:09:07;21.50;;;16.03;;
5491;SDS011;2768;53.540;10.224;2023-12-04T13:15:01;18.67;;;13.10;;
5491;SDS011;2768;53.540;10.224;2023-12-04T13:20:56;17.10;;;12.97;;
5491;SDS011;2768;53.540;10.224;2023-12-04T13:26:51;15.73;;;11.60;;
5491;SDS011;2768;53.540;10.224;2023-12-04T13:32:44;15.60;;;11.33;;
5491;SDS011;2768;53.540;10.224;2023-12-04T13:38:40;15.63;;;11.37;;
5491;SDS011;2768;53.540;10.224;2023-12-04T13:44:33;16.20;;;11.00;;
5491;SDS011;2768;53.540;10.224;2023-12-04T13:50:27;15.37;;;10.60;;
5491;SDS011;2768;53.540;10.224;2023-12-04T13:56:22;16.27;;;11.50;;
5491;SDS011;2768;53.540;10.224;2023-12-04T14:02:32;13.23;;;10.17;;
5491;SDS011;2768;53.540;10.224;2023-12-04T14:08:28;15.20;;;10.50;;
5491;SDS011;2768;53.540;10.224;2023-12-04T14:14:23;13.20;;;10.20;;
5491;SDS011;2768;53.540;10.224;2023-12-04T14:20:17;14.10;;;10.50;;
5491;SDS011;2768;53.540;10.224;2023-12-04T14:26:13;15.20;;;10.73;;
5491;SDS011;2768;53.540;10.224;2023-12-04T14:32:08;13.30;;;9.67;;
5491;SDS011;2768;53.540;10.224;2023-12-04T14:38:01;14.47;;;9.60;;
5491;SDS011;2768;53.540;10.224;2023-12-04T14:43:54;12.67;;;9.10;;
5491;SDS011;2768;53.540;10.224;2023-12-04T14:49:51;14.27;;;10.40;;
5491;SDS011;2768;53.540;10.224;2023-12-04T14:55:47;13.70;;;8.70;;
5491;SDS011;2768;53.540;10.224;2023-12-04T15:01:54;15.20;;;10.17;;
5491;SDS011;2768;53.540;10.224;2023-12-04T15:07:58;13.27;;;9.07;;
5491;SDS011;2768;53.540;10.224;2023-12-04T15:14:27;11.80;;;8.83;;
5491;SDS011;2768;53.540;10.224;2023-12-04T15:20:31;9.90;;;7.97;;
5491;SDS011;2768;53.540;10.224;2023-12-04T15:26:30;11.17;;;9.00;;
5491;SDS011;2768;53.540;10.224;2023-12-04T15:32:24;12.03;;;9.00;;
5491;SDS011;2768;53.540;10.224;2023-12-04T15:38:17;14.97;;;9.27;;
5491;SDS011;2768;53.540;10.224;2023-12-04T15:44:14;12.77;;;8.57;;
5491;SDS011;2768;53.540;10.224;2023-12-04T15:50:07;10.20;;;8.03;;
5491;SDS011;2768;53.540;10.224;2023-12-04T15:56:01;9.97;;;7.50;;
5491;SDS011;2768;53.540;10.224;2023-12-04T16:01:59;9.63;;;7.47;;
5491;SDS011;2768;53.540;10.224;2023-12-04T16:07:52;12.67;;;9.00;;
5491;SDS011;2768;53.540;10.224;2023-12-04T16:13:46;11.70;;;8.40;;
5491;SDS011;2768;53.540;10.224;2023-12-04T16:19:40;11.17;;;7.90;;
5491;SDS011;2768;53.540;10.224;2023-12-04T16:25:34;10.20;;;7.30;;
5491;SDS011;2768;53.540;10.224;2023-12-04T16:31:27;8.83;;;7.17;;
5491;SDS011;2768;53.540;10.224;2023-12-04T16:37:23;8.70;;;7.23;;
5491;SDS011;2768;53.540;10.224;2023-12-04T16:43:20;10.43;;;7.13;;
5491;SDS011;2768;53.540;10.224;2023-12-04T16:49:14;7.97;;;6.70;;
5491;SDS011;2768;53.540;10.224;2023-12-04T16:55:09;8.73;;;7.37;;
5491;SDS011;2768;53.540;10.224;2023-12-04T17:01:03;7.27;;;6.17;;
5491;SDS011;2768;53.540;10.224;2023-12-04T17:06:57;8.07;;;6.43;;
5491;SDS011;2768;53.540;10.224;2023-12-04T17:12:52;9.40;;;7.37;;
5491;SDS011;2768;53.540;10.224;2023-12-04T17:18:45;9.70;;;6.80;;
5491;SDS011;2768;53.540;10.224;2023-12-04T17:24:39;8.07;;;6.07;;
5491;SDS011;2768;53.540;10.224;2023-12-04T17:30:34;7.30;;;6.20;;
5491;SDS011;2768;53.540;10.224;2023-12-04T17:36:28;8.00;;;6.80;;
5491;SDS011;2768;53.540;10.224;2023-12-04T17:42:21;7.90;;;6.63;;
5491;SDS011;2768;53.540;10.224;2023-12-04T17:48:15;7.40;;;5.70;;
5491;SDS011;2768;53.540;10.224;2023-12-04T17:54:08;6.87;;;5.13;;
5491;SDS011;2768;53.540;10.224;2023-12-04T18:00:02;6.93;;;5.60;;
5491;SDS011;2768;53.540;10.224;2023-12-04T18:06:03;6.50;;;5.20;;
5491;SDS011;2768;53.540;10.224;2023-12-04T18:11:56;7.53;;;5.87;;
5491;SDS011;2768;53.540;10.224;2023-12-04T18:17:50;6.03;;;5.30;;
5491;SDS011;2768;53.540;10.224;2023-12-04T18:23:45;5.80;;;4.93;;
5491;SDS011;2768;53.540;10.224;2023-12-04T18:29:38;5.90;;;4.83;;
5491;SDS011;2768;53.540;10.224;2023-12-04T18:35:32;7.33;;;6.03;;
5491;SDS011;2768;53.540;10.224;2023-12-04T18:41:28;6.87;;;5.10;;
5491;SDS011;2768;53.540;10.224;2023-12-04T18:47:22;5.00;;;4.37;;
5491;SDS011;2768;53.540;10.224;2023-12-04T18:53:19;6.10;;;5.17;;
5491;SDS011;2768;53.540;10.224;2023-12-04T18:59:14;4.97;;;4.47;;
5491;SDS011;2768;53.540;10.224;2023-12-04T19:05:08;5.57;;;4.60;;
5491;SDS011;2768;53.540;10.224;2023-12-04T19:11:02;6.23;;;5.57;;
5491;SDS011;2768;53.540;10.224;2023-12-04T19:16:57;5.73;;;5.10;;
5491;SDS011;2768;53.540;10.224;2023-12-04T19:22:50;7.53;;;6.60;;
5491;SDS011;2768;53.540;10.224;2023-12-04T19:28:44;7.50;;;5.80;;
5491;SDS011;2768;53.540;10.224;2023-12-04T19:34:39;7.70;;;5.67;;
5491;SDS011;2768;53.540;10.224;2023-12-04T19:40:34;8.63;;;6.60;;
5491;SDS011;2768;53.540;10.224;2023-12-04T19:46:27;8.80;;;6.67;;
5491;SDS011;2768;53.540;10.224;2023-12-04T19:52:22;8.90;;;6.90;;
5491;SDS011;2768;53.540;10.224;2023-12-04T19:58:15;12.40;;;8.53;;
5491;SDS011;2768;53.540;10.224;2023-12-04T20:04:09;9.87;;;7.70;;
5491;SDS011;2768;53.540;10.224;2023-12-04T20:10:05;8.90;;;6.97;;
5491;SDS011;2768;53.540;10.224;2023-12-04T20:15:59;9.80;;;7.07;;
5491;SDS011;2768;53.540;10.224;2023-12-04T20:21:53;9.77;;;8.40;;
5491;SDS011;2768;53.540;10.224;2023-12-04T20:27:48;12.63;;;7.90;;
5491;SDS011;2768;53.540;10.224;2023-12-04T20:33:41;11.50;;;8.60;;
5491;SDS011;2768;53.540;10.224;2023-12-04T20:39:35;9.80;;;7.30;;
5491;SDS011;2768;53.540;10.224;2023-12-04T20:45:30;8.30;;;7.00;;
5491;SDS011;2768;53.540;10.224;2023-12-04T20:51:24;9.30;;;7.40;;
5491;SDS011;2768;53.540;10.224;2023-12-04T20:57:17;10.73;;;7.20;;
5491;SDS011;2768;53.540;10.224;2023-12-04T21:03:12;8.13;;;6.70;;
5491;SDS011;2768;53.540;10.224;2023-12-04T21:09:08;11.47;;;8.23;;
5491;SDS011;2768;53.540;10.224;2023-12-04T21:15:02;10.90;;;7.63;;
5491;SDS011;2768;53.540;10.224;2023-12-04T21:20:57;10.60;;;6.80;;
5491;SDS011;2768;53.540;10.224;2023-12-04T21:26:50;9.47;;;6.97;;
5491;SDS011;2768;53.540;10.224;2023-12-04T21:32:45;10.30;;;7.40;;
5491;SDS011;2768;53.540;10.224;2023-12-04T21:38:39;10.63;;;8.10;;
5491;SDS011;2768;53.540;10.224;2023-12-04T21:44:33;9.60;;;7.40;;
5491;SDS011;2768;53.540;10.224;2023-12-04T21:50:27;9.50;;;7.03;;
5491;SDS011;2768;53.540;10.224;2023-12-04T21:56:21;10.20;;;7.40;;
5491;SDS011;2768;53.540;10.224;2023-12-04T22:02:15;10.00;;;7.40;;
5491;SDS011;2768;53.540;10.224;2023-12-04T22:08:08;10.90;;;7.50;;
5491;SDS011;2768;53.540;10.224;2023-12-04T22:14:02;12.10;;;8.73;;
5491;SDS011;2768;53.540;10.224;2023-12-04T22:19:56;11.67;;;7.60;;
5491;SDS011;2768;53.540;10.224;2023-12-04T22:25:50;8.43;;;6.73;;
5491;SDS011;2768;53.540;10.224;2023-12-04T22:31:44;8.57;;;6.87;;
5491;SDS011;2768;53.540;10.224;2023-12-04T22:37:38;10.70;;;8.00;;
5491;SDS011;2768;53.540;10.224;2023-12-04T22:43:32;10.13;;;7.50;;
5491;SDS011;2768;53.540;10.224;2023-12-04T22:49:28;11.57;;;8.60;;
5491;SDS011;2768;53.540;10.224;2023-12-04T22:55:21;9.37;;;7.90;;
5491;SDS011;2768;53.540;10.224;2023-12-04T23:01:14;9.07;;;6.70;;
5491;SDS011;2768;53.540;10.224;2023-12-04T23:07:09;9.50;;;7.10;;
5491;SDS011;2768;53.540;10.224;2023-12-04T23:13:02;10.77;;;7.53;;
5491;SDS011;2768;53.540;10.224;2023-12-04T23:18:56;9.13;;;7.10;;
5491;SDS011;2768;53.540;10.224;2023-12-04T23:24:53;9.50;;;7.40;;
5491;SDS011;2768;53.540;10.224;2023-12-04T23:30:48;10.87;;;7.43;;
5491;SDS011;2768;53.540;10.224;2023-12-04T23:36:41;10.07;;;7.93;;
5491;SDS011;2768;53.540;10.224;2023-12-04T23:42:35;10.63;;;8.60;;
5491;SDS011;2768;53.540;10.224;2023-12-04T23:48:29;11.10;;;7.73;;
5491;SDS011;2768;53.540;10.224;2023-12-04T23:54:23;8.97;;;7.30;;
